createdAt,value
2023-03-18T00:02:21.809Z,17.90
2023-03-18T00:04:49.518Z,16.60
2023-03-18T00:07:17.664Z,17.47
2023-03-18T00:09:45.464Z,18.63
2023-03-18T00:12:13.036Z,18.23
2023-03-18T00:14:40.696Z,18.23
2023-03-18T00:17:09.806Z,18.10
2023-03-18T00:19:38.082Z,17.73
2023-03-18T00:22:05.770Z,17.10
2023-03-18T00:24:33.385Z,17.40
2023-03-18T00:27:01.123Z,17.67
2023-03-18T00:29:28.749Z,18.67
2023-03-18T00:31:56.556Z,16.93
2023-03-18T00:34:25.936Z,17.43
2023-03-18T00:36:57.139Z,18.60
2023-03-18T00:39:26.456Z,18.60
2023-03-18T00:41:56.569Z,19.17
2023-03-18T00:44:25.258Z,18.00
2023-03-18T00:46:53.042Z,18.20
2023-03-18T00:49:20.920Z,18.97
2023-03-18T00:51:50.119Z,18.80
2023-03-18T00:54:20.772Z,18.00
2023-03-18T00:56:48.611Z,19.53
2023-03-18T00:59:16.400Z,18.60
2023-03-18T01:01:44.411Z,18.50
2023-03-18T01:04:13.045Z,16.57
2023-03-18T01:06:40.681Z,17.80
2023-03-18T01:09:11.762Z,17.70
2023-03-18T01:11:39.590Z,17.23
2023-03-18T01:14:07.377Z,17.03
2023-03-18T01:16:35.875Z,16.57
2023-03-18T01:19:04.309Z,17.80
2023-03-18T01:21:32.025Z,16.80
2023-03-18T01:24:00.911Z,18.93
2023-03-18T01:26:30.113Z,19.00
2023-03-18T01:28:58.193Z,17.60
2023-03-18T01:31:26.021Z,18.10
2023-03-18T01:33:54.649Z,17.70
2023-03-18T01:36:22.639Z,17.57
2023-03-18T01:38:50.488Z,18.80
2023-03-18T01:41:18.704Z,19.00
2023-03-18T01:43:48.473Z,17.03
2023-03-18T01:46:36.842Z,16.10
2023-03-18T01:49:09.002Z,19.60
2023-03-18T01:51:39.473Z,17.50
2023-03-18T01:54:09.040Z,18.23
2023-03-18T01:56:39.984Z,18.50
2023-03-18T01:59:11.288Z,19.70
2023-03-18T02:01:42.640Z,18.50
2023-03-18T02:04:11.760Z,19.70
2023-03-18T02:06:40.428Z,20.13
2023-03-18T02:09:08.699Z,20.10
2023-03-18T02:11:39.267Z,19.90
2023-03-18T02:14:11.391Z,19.03
2023-03-18T02:16:45.216Z,20.13
2023-03-18T02:19:23.692Z,18.93
2023-03-18T02:21:57.504Z,17.03
2023-03-18T02:24:37.820Z,17.60
2023-03-18T02:27:16.204Z,17.57
2023-03-18T02:29:45.018Z,16.93
2023-03-18T02:32:14.845Z,16.13
2023-03-18T02:34:45.106Z,18.17
2023-03-18T02:37:13.003Z,18.30
2023-03-18T02:39:40.996Z,17.60
2023-03-18T02:42:12.327Z,17.90
2023-03-18T02:44:53.337Z,18.53
2023-03-18T02:47:34.355Z,16.90
2023-03-18T02:50:02.952Z,16.50
2023-03-18T02:52:30.827Z,17.37
2023-03-18T02:54:59.283Z,17.70
2023-03-18T02:57:27.041Z,17.73
2023-03-18T02:59:55.965Z,15.90
2023-03-18T03:02:23.625Z,15.30
2023-03-18T03:04:51.791Z,15.20
2023-03-18T03:07:19.416Z,13.63
2023-03-18T03:09:47.230Z,14.97
2023-03-18T03:12:15.262Z,15.10
2023-03-18T03:14:42.965Z,14.90
2023-03-18T03:17:12.462Z,15.17
2023-03-18T03:19:40.508Z,14.27
2023-03-18T03:22:08.262Z,14.70
2023-03-18T03:24:36.557Z,15.67
2023-03-18T03:27:05.056Z,15.80
2023-03-18T03:29:32.698Z,16.50
2023-03-18T03:32:00.296Z,16.17
2023-03-18T03:34:29.682Z,13.60
2023-03-18T03:36:57.851Z,14.73
2023-03-18T03:39:25.632Z,14.07
2023-03-18T03:41:53.262Z,15.00
2023-03-18T03:44:21.065Z,14.80
2023-03-18T03:46:49.195Z,14.00
2023-03-18T03:49:16.836Z,14.50
2023-03-18T03:51:46.413Z,14.30
2023-03-18T03:54:15.151Z,15.47
2023-03-18T03:56:43.175Z,15.50
2023-03-18T03:59:11.529Z,14.20
2023-03-18T04:01:40.060Z,14.93
2023-03-18T04:04:07.800Z,14.53
2023-03-18T04:06:35.551Z,13.20
2023-03-18T04:09:05.736Z,14.17
2023-03-18T04:11:33.314Z,13.40
2023-03-18T04:14:01.235Z,15.60
2023-03-18T04:16:28.896Z,14.90
2023-03-18T04:18:56.553Z,14.43
2023-03-18T04:21:24.267Z,14.17
2023-03-18T04:23:51.837Z,13.93
2023-03-18T04:26:21.031Z,14.60
2023-03-18T04:28:48.680Z,15.50
2023-03-18T04:31:16.649Z,14.50
2023-03-18T04:33:44.751Z,14.20
2023-03-18T04:36:12.704Z,14.10
2023-03-18T04:38:40.436Z,14.17
2023-03-18T04:41:08.303Z,14.40
2023-03-18T04:43:37.454Z,14.77
2023-03-18T04:46:05.255Z,15.50
2023-03-18T04:48:32.914Z,15.60
2023-03-18T04:51:01.026Z,14.97
2023-03-18T04:53:29.184Z,15.43
2023-03-18T04:55:57.785Z,14.37
2023-03-18T04:58:26.116Z,14.53
2023-03-18T05:00:55.211Z,14.23
2023-03-18T05:03:22.945Z,15.17
2023-03-18T05:05:50.951Z,14.70
2023-03-18T05:08:18.558Z,14.77
2023-03-18T05:10:46.129Z,13.93
2023-03-18T05:13:13.870Z,15.13
2023-03-18T05:15:42.523Z,14.87
2023-03-18T05:18:11.442Z,14.53
2023-03-18T05:20:39.616Z,14.40
2023-03-18T05:23:07.244Z,13.83
2023-03-18T05:25:35.314Z,15.17
2023-03-18T05:28:03.032Z,13.80
2023-03-18T05:30:30.715Z,15.03
2023-03-18T05:32:58.513Z,15.10
2023-03-18T05:35:27.703Z,13.67
2023-03-18T05:37:55.370Z,14.70
2023-03-18T05:40:24.017Z,15.17
2023-03-18T05:42:56.162Z,14.53
2023-03-18T05:45:24.422Z,15.67
2023-03-18T05:47:53.808Z,14.43
2023-03-18T05:50:30.886Z,14.97
2023-03-18T05:52:58.556Z,14.53
2023-03-18T05:55:28.189Z,13.33
2023-03-18T05:57:55.975Z,14.47
2023-03-18T06:00:24.688Z,14.90
2023-03-18T06:02:53.875Z,14.37
2023-03-18T06:05:22.673Z,15.67
2023-03-18T06:07:52.410Z,16.63
2023-03-18T06:10:20.103Z,16.10
2023-03-18T06:12:47.835Z,14.20
2023-03-18T06:15:15.500Z,13.47
2023-03-18T06:17:43.650Z,14.83
2023-03-18T06:20:14.165Z,15.33
2023-03-18T06:22:43.584Z,15.43
2023-03-18T06:25:12.658Z,14.13
2023-03-18T06:27:41.072Z,15.00
2023-03-18T06:30:10.510Z,14.87
2023-03-18T06:32:38.159Z,16.03
2023-03-18T06:35:06.567Z,14.83
2023-03-18T06:37:34.637Z,15.30
2023-03-18T06:40:02.716Z,15.47
2023-03-18T06:42:31.675Z,15.30
2023-03-18T06:44:59.943Z,15.20
2023-03-18T06:47:27.830Z,15.47
2023-03-18T06:49:56.113Z,15.40
2023-03-18T06:52:24.331Z,15.70
2023-03-18T06:54:53.427Z,16.23
2023-03-18T06:57:21.616Z,16.87
2023-03-18T06:59:50.714Z,15.40
2023-03-18T07:02:18.377Z,15.60
2023-03-18T07:04:46.284Z,15.13
2023-03-18T07:07:14.592Z,15.50
2023-03-18T07:09:43.584Z,14.93
2023-03-18T07:12:11.495Z,16.37
2023-03-18T07:14:39.153Z,16.43
2023-03-18T07:17:08.905Z,15.57
2023-03-18T07:19:36.483Z,15.53
2023-03-18T07:22:04.697Z,16.70
2023-03-18T07:24:32.365Z,16.20
2023-03-18T07:27:00.492Z,15.80
2023-03-18T07:29:28.358Z,14.70
2023-03-18T07:31:55.992Z,16.03
2023-03-18T07:34:24.928Z,15.83
2023-03-18T07:36:52.888Z,16.30
2023-03-18T07:39:20.867Z,16.80
2023-03-18T07:41:49.370Z,17.53
2023-03-18T07:44:17.081Z,15.37
2023-03-18T07:46:45.536Z,16.20
2023-03-18T07:49:13.291Z,16.47
2023-03-18T07:51:42.295Z,16.10
2023-03-18T07:54:10.079Z,17.10
2023-03-18T07:56:37.675Z,17.50
2023-03-18T07:59:05.334Z,16.67
2023-03-18T08:01:33.055Z,16.27
2023-03-18T08:04:00.760Z,15.47
2023-03-18T08:06:28.498Z,15.83
2023-03-18T08:08:57.622Z,15.40
2023-03-18T08:11:25.246Z,16.17
2023-03-18T08:13:53.094Z,16.17
2023-03-18T08:16:20.839Z,15.37
2023-03-18T08:18:48.876Z,16.60
2023-03-18T08:21:16.504Z,17.37
2023-03-18T08:23:44.682Z,16.37
2023-03-18T08:26:13.741Z,16.60
2023-03-18T08:28:41.792Z,17.50
2023-03-18T08:31:09.518Z,17.10
2023-03-18T08:33:37.598Z,18.10
2023-03-18T08:36:06.132Z,19.13
2023-03-18T08:38:33.962Z,19.47
2023-03-18T08:41:01.967Z,17.93
2023-03-18T08:43:30.980Z,17.70
2023-03-18T08:45:58.646Z,18.73
2023-03-18T08:48:26.781Z,17.47
2023-03-18T08:50:54.683Z,20.37
2023-03-18T08:53:22.527Z,18.77
2023-03-18T08:55:50.320Z,21.53
2023-03-18T08:58:18.940Z,22.30
2023-03-18T09:00:50.040Z,21.83
2023-03-18T09:03:17.701Z,22.50
2023-03-18T09:05:49.167Z,21.97
2023-03-18T09:08:16.927Z,22.37
2023-03-18T09:10:46.177Z,22.23
2023-03-18T09:13:13.860Z,26.40
2023-03-18T09:15:43.025Z,28.03
2023-03-18T09:18:13.454Z,27.30
2023-03-18T09:20:41.768Z,26.90
2023-03-18T09:23:11.398Z,26.30
2023-03-18T09:25:40.155Z,29.07
2023-03-18T09:28:07.823Z,27.23
2023-03-18T09:30:35.932Z,31.33
2023-03-18T09:33:06.102Z,32.30
2023-03-18T09:35:36.493Z,32.57
2023-03-18T09:38:05.125Z,33.20
2023-03-18T09:40:38.050Z,35.97
2023-03-18T09:43:20.510Z,36.17
2023-03-18T09:46:00.025Z,35.53
2023-03-18T09:48:47.534Z,38.63
2023-03-18T09:51:29.730Z,39.47
2023-03-18T09:54:02.192Z,40.27
2023-03-18T09:56:34.525Z,39.67
2023-03-18T09:59:05.109Z,38.83
2023-03-18T10:01:36.934Z,40.40
2023-03-18T10:04:10.924Z,40.00
2023-03-18T10:06:43.137Z,43.87
2023-03-18T10:09:17.779Z,42.43
2023-03-18T10:11:47.842Z,41.23
2023-03-18T10:14:32.094Z,42.37
2023-03-18T10:17:09.459Z,41.47
2023-03-18T10:19:38.374Z,43.70
2023-03-18T10:22:20.419Z,43.47
2023-03-18T10:24:56.717Z,43.87
2023-03-18T10:27:38.228Z,41.30
2023-03-18T10:30:28.708Z,42.53
2023-03-18T10:33:05.143Z,42.93
2023-03-18T10:35:39.937Z,43.93
2023-03-18T10:38:18.833Z,43.83
2023-03-18T10:40:49.274Z,43.70
2023-03-18T10:43:19.382Z,44.20
2023-03-18T10:45:49.688Z,43.57
2023-03-18T10:48:22.545Z,46.17
2023-03-18T10:50:59.032Z,45.77
2023-03-18T10:53:32.896Z,44.03
2023-03-18T10:56:07.223Z,44.77
2023-03-18T10:58:36.069Z,44.00
2023-03-18T11:01:04.320Z,45.30
2023-03-18T11:03:36.236Z,44.17
2023-03-18T11:06:05.883Z,45.03
2023-03-18T11:08:39.618Z,42.13
2023-03-18T11:11:28.940Z,44.30
2023-03-18T11:13:59.825Z,42.90
2023-03-18T11:16:33.966Z,44.90
2023-03-18T11:19:09.149Z,46.83
2023-03-18T11:21:38.318Z,42.17
2023-03-18T11:24:36.051Z,41.43
2023-03-18T11:27:04.399Z,41.90
2023-03-18T11:29:34.277Z,42.93
2023-03-18T11:32:03.058Z,46.00
2023-03-18T11:34:33.013Z,45.30
2023-03-18T11:37:04.718Z,41.50
2023-03-18T11:39:38.123Z,46.10
2023-03-18T11:42:19.111Z,44.23
2023-03-18T11:44:47.701Z,44.70
2023-03-18T11:47:22.903Z,46.47
2023-03-18T11:49:50.805Z,44.53
2023-03-18T11:52:31.366Z,46.73
2023-03-18T11:55:23.509Z,43.20
2023-03-18T11:58:22.292Z,45.83
2023-03-18T12:00:59.131Z,44.07
2023-03-18T12:04:13.623Z,45.03
2023-03-18T12:06:49.619Z,43.17
2023-03-18T12:09:27.075Z,46.63
2023-03-18T12:12:07.502Z,45.67
2023-03-18T12:14:41.953Z,45.37
2023-03-18T12:17:25.524Z,43.40
2023-03-18T12:20:09.926Z,45.83
2023-03-18T12:23:03.304Z,47.43
2023-03-18T12:25:55.065Z,44.93
2023-03-18T12:28:36.353Z,47.20
2023-03-18T12:31:39.434Z,46.97
2023-03-18T12:34:21.227Z,47.20
2023-03-18T12:37:01.855Z,47.67
2023-03-18T12:39:59.782Z,46.40
2023-03-18T12:42:47.131Z,47.10
2023-03-18T12:45:20.642Z,50.43
2023-03-18T12:47:53.200Z,48.70
2023-03-18T12:50:26.426Z,50.73
2023-03-18T12:52:57.907Z,45.67
2023-03-18T12:55:29.830Z,49.67
2023-03-18T12:58:01.247Z,49.30
2023-03-18T13:00:33.495Z,48.77
2023-03-18T13:03:07.444Z,46.97
2023-03-18T13:05:45.429Z,46.60
2023-03-18T13:08:54.466Z,48.80
2023-03-18T13:11:49.232Z,46.10
2023-03-18T13:14:25.792Z,48.23
2023-03-18T13:16:56.208Z,50.00
2023-03-18T13:19:24.067Z,50.10
2023-03-18T13:21:58.456Z,50.37
2023-03-18T13:24:49.484Z,48.60
2023-03-18T13:27:54.083Z,50.00
2023-03-18T13:30:33.358Z,50.77
2023-03-18T13:33:19.058Z,50.23
2023-03-18T13:36:23.478Z,50.60
2023-03-18T13:39:18.085Z,48.30
2023-03-18T13:42:14.420Z,51.77
2023-03-18T13:44:46.266Z,49.83
2023-03-18T13:47:18.772Z,50.80
2023-03-18T13:49:48.341Z,49.50
2023-03-18T13:52:25.552Z,46.13
2023-03-18T13:54:53.366Z,48.40
2023-03-18T13:57:35.789Z,48.27
2023-03-18T14:00:28.085Z,48.43
2023-03-18T14:03:23.798Z,47.30
2023-03-18T14:06:15.721Z,44.40
2023-03-18T14:08:52.115Z,50.33
2023-03-18T14:11:52.655Z,48.60
2023-03-18T14:14:41.228Z,48.33
2023-03-18T14:17:18.336Z,49.30
2023-03-18T14:19:46.240Z,48.20
2023-03-18T14:22:23.142Z,48.67
2023-03-18T14:25:20.463Z,47.50
2023-03-18T14:27:51.443Z,50.13
2023-03-18T14:30:43.895Z,47.33
2023-03-18T14:33:35.525Z,43.97
2023-03-18T14:36:10.260Z,48.07
2023-03-18T14:38:49.925Z,47.70
2023-03-18T14:41:28.554Z,48.03
2023-03-18T14:44:07.513Z,49.65
2023-03-18T14:46:41.282Z,48.60
2023-03-18T14:49:33.410Z,49.30
2023-03-18T14:52:03.014Z,45.77
2023-03-18T14:54:36.683Z,49.53
2023-03-18T14:57:05.398Z,49.47
2023-03-18T14:59:33.108Z,50.27
2023-03-18T15:02:05.252Z,48.30
2023-03-18T15:04:33.080Z,46.90
2023-03-18T15:07:05.391Z,49.93
2023-03-18T15:09:38.305Z,48.70
2023-03-18T15:12:18.212Z,46.50
2023-03-18T15:14:45.826Z,49.23
2023-03-18T15:17:17.209Z,46.87
2023-03-18T15:19:44.934Z,53.10
2023-03-18T15:22:25.881Z,46.30
2023-03-18T15:24:59.143Z,47.63
2023-03-18T15:27:29.080Z,49.80
2023-03-18T15:29:59.064Z,51.23
2023-03-18T15:32:29.206Z,47.80
2023-03-18T15:34:59.512Z,49.20
2023-03-18T15:37:36.315Z,47.83
2023-03-18T15:40:30.090Z,47.60
2023-03-18T15:42:59.982Z,47.93
2023-03-18T15:45:30.843Z,49.53
2023-03-18T15:47:59.446Z,47.27
2023-03-18T15:50:30.280Z,48.73
2023-03-18T15:53:21.543Z,49.63
2023-03-18T15:55:53.261Z,47.53
2023-03-18T15:58:25.619Z,47.43
2023-03-18T16:00:55.218Z,48.13
2023-03-18T16:03:24.903Z,45.10
2023-03-18T16:05:53.798Z,44.93
2023-03-18T16:08:23.740Z,45.33
2023-03-18T16:10:54.726Z,47.93
2023-03-18T16:13:25.446Z,47.50
2023-03-18T16:15:53.956Z,44.37
2023-03-18T16:18:21.995Z,43.53
2023-03-18T16:20:50.144Z,47.03
2023-03-18T16:23:18.936Z,43.43
2023-03-18T16:25:48.858Z,41.77
2023-03-18T16:28:21.156Z,45.27
2023-03-18T16:30:52.026Z,43.40
2023-03-18T16:33:21.022Z,44.23
2023-03-18T16:35:56.686Z,45.50
2023-03-18T16:38:24.669Z,40.97
2023-03-18T16:40:54.799Z,42.30
2023-03-18T16:43:26.984Z,43.10
2023-03-18T16:45:55.262Z,44.47
2023-03-18T16:48:23.351Z,46.83
2023-03-18T16:50:52.408Z,49.27
2023-03-18T16:53:24.442Z,53.80
2023-03-18T16:55:55.985Z,50.43
2023-03-18T16:58:28.878Z,50.57
2023-03-18T17:00:57.061Z,44.33
2023-03-18T17:03:24.793Z,44.87
2023-03-18T17:05:53.077Z,43.70
2023-03-18T17:08:21.968Z,44.90
2023-03-18T17:10:52.790Z,44.63
2023-03-18T17:13:23.362Z,39.90
2023-03-18T17:15:52.714Z,42.70
2023-03-18T17:18:23.337Z,42.90
2023-03-18T17:20:52.052Z,42.33
2023-03-18T17:23:22.212Z,42.77
2023-03-18T17:25:53.262Z,43.50
2023-03-18T17:28:34.490Z,46.57
2023-03-18T17:31:04.182Z,45.93
2023-03-18T17:33:34.766Z,48.00
2023-03-18T17:36:02.767Z,49.70
2023-03-18T17:38:32.155Z,43.47
2023-03-18T17:41:01.706Z,43.20
2023-03-18T17:43:31.973Z,49.40
2023-03-18T17:46:00.840Z,46.63
2023-03-18T17:48:31.596Z,42.53
2023-03-18T17:51:01.263Z,46.03
2023-03-18T17:53:33.040Z,47.60
2023-03-18T17:56:01.812Z,63.10
2023-03-18T17:58:31.904Z,83.80
2023-03-18T18:01:05.443Z,73.40
2023-03-18T18:03:36.793Z,55.73
2023-03-18T18:06:04.920Z,53.27
2023-03-18T18:08:32.586Z,54.77
2023-03-18T18:11:11.088Z,52.43
2023-03-18T18:13:38.786Z,49.20
2023-03-18T18:16:07.010Z,47.37
2023-03-18T18:18:37.855Z,50.60
2023-03-18T18:21:11.186Z,45.97
2023-03-18T18:23:40.094Z,44.70
2023-03-18T18:26:09.544Z,43.37
2023-03-18T18:28:39.544Z,47.53
2023-03-18T18:31:09.255Z,44.07
2023-03-18T18:33:41.430Z,48.43
2023-03-18T18:36:10.471Z,42.70
2023-03-18T18:38:38.324Z,42.67
2023-03-18T18:41:06.600Z,50.30
2023-03-18T18:43:34.216Z,48.80
2023-03-18T18:46:01.977Z,49.57
2023-03-18T18:48:31.420Z,51.57
2023-03-18T18:51:01.967Z,53.90
2023-03-18T18:53:32.099Z,54.73
2023-03-18T18:56:02.436Z,53.63
2023-03-18T18:58:32.481Z,54.00
2023-03-18T19:01:01.190Z,54.87
2023-03-18T19:03:31.772Z,49.60
2023-03-18T19:06:02.261Z,48.03
2023-03-18T19:08:31.807Z,49.73
2023-03-18T19:11:01.300Z,51.67
2023-03-18T19:13:30.347Z,51.47
2023-03-18T19:16:00.754Z,52.17
2023-03-18T19:18:39.383Z,54.27
2023-03-18T19:21:08.748Z,52.87
2023-03-18T19:23:37.208Z,50.63
2023-03-18T19:26:07.406Z,55.43
2023-03-18T19:28:58.574Z,53.33
2023-03-18T19:31:30.332Z,53.33
2023-03-18T19:33:59.918Z,52.63
2023-03-18T19:36:31.464Z,50.27
2023-03-18T19:39:00.462Z,51.40
2023-03-18T19:41:28.577Z,55.17
2023-03-18T19:44:00.623Z,51.50
2023-03-18T19:46:35.912Z,49.77
2023-03-18T19:49:03.530Z,51.50
2023-03-18T19:51:32.667Z,50.70
2023-03-18T19:54:01.130Z,50.53
2023-03-18T19:56:31.329Z,47.37
2023-03-18T19:59:00.249Z,47.87
2023-03-18T20:01:29.268Z,49.57
2023-03-18T20:03:59.031Z,52.03
2023-03-18T20:06:27.024Z,54.37
2023-03-18T20:08:55.956Z,57.47
2023-03-18T20:11:24.208Z,58.07
2023-03-18T20:13:52.209Z,50.83
2023-03-18T20:16:21.703Z,52.27
2023-03-18T20:18:49.358Z,54.87
2023-03-18T20:21:23.276Z,54.50
2023-03-18T20:23:52.529Z,52.50
2023-03-18T20:26:22.796Z,53.83
2023-03-18T20:28:55.386Z,51.47
2023-03-18T20:31:23.169Z,53.80
2023-03-18T20:33:50.890Z,51.23
2023-03-18T20:36:19.277Z,57.40
2023-03-18T20:38:49.097Z,49.13
2023-03-18T20:41:18.090Z,54.60
2023-03-18T20:43:49.245Z,55.70
2023-03-18T20:46:17.785Z,61.43
2023-03-18T20:48:46.087Z,58.13
2023-03-18T20:51:20.833Z,61.40
2023-03-18T20:53:49.317Z,59.97
2023-03-18T20:56:19.322Z,58.40
2023-03-18T20:58:48.887Z,63.50
2023-03-18T21:01:17.429Z,60.67
2023-03-18T21:03:45.327Z,62.10
2023-03-18T21:06:14.832Z,57.90
2023-03-18T21:08:43.051Z,56.87
2023-03-18T21:11:21.014Z,58.43
2023-03-18T21:13:50.346Z,59.03
2023-03-18T21:16:18.336Z,62.50
2023-03-18T21:18:46.463Z,65.10
2023-03-18T21:21:21.134Z,61.10
2023-03-18T21:23:49.058Z,56.50
2023-03-18T21:26:16.893Z,61.50
2023-03-18T21:28:44.834Z,58.30
2023-03-18T21:31:24.256Z,55.07
2023-03-18T21:33:53.067Z,57.47
2023-03-18T21:36:21.652Z,55.07
2023-03-18T21:38:49.377Z,60.43
2023-03-18T21:41:21.052Z,64.60
2023-03-18T21:43:49.818Z,64.80
2023-03-18T21:46:20.704Z,63.80
2023-03-18T21:48:48.691Z,68.03
2023-03-18T21:51:37.480Z,67.33
2023-03-18T21:54:06.290Z,67.73
2023-03-18T21:56:33.970Z,67.87
2023-03-18T21:59:01.550Z,73.63
2023-03-18T22:01:32.253Z,71.60
2023-03-18T22:04:00.361Z,67.80
2023-03-18T22:06:28.003Z,67.47
2023-03-18T22:08:56.748Z,69.23
2023-03-18T22:11:24.364Z,69.43
2023-03-18T22:13:52.236Z,72.13
2023-03-18T22:16:20.035Z,65.77
2023-03-18T22:18:48.997Z,73.73
2023-03-18T22:21:20.583Z,68.70
2023-03-18T22:23:48.599Z,70.00
2023-03-18T22:26:18.063Z,68.27
2023-03-18T22:28:46.631Z,68.80
2023-03-18T22:31:19.629Z,67.70
2023-03-18T22:33:48.909Z,74.07
2023-03-18T22:36:18.555Z,72.27
2023-03-18T22:38:46.835Z,68.90
2023-03-18T22:41:21.329Z,66.43
2023-03-18T22:43:49.703Z,71.27
2023-03-18T22:46:18.267Z,70.13
2023-03-18T22:48:45.949Z,76.77
2023-03-18T22:51:23.411Z,70.03
2023-03-18T22:53:52.927Z,71.50
2023-03-18T22:56:22.074Z,69.70
2023-03-18T22:58:49.845Z,66.37
2023-03-18T23:01:18.825Z,78.77
2023-03-18T23:03:47.417Z,72.23
2023-03-18T23:06:16.776Z,70.63
2023-03-18T23:08:46.604Z,70.77
2023-03-18T23:11:15.037Z,70.80
2023-03-18T23:13:44.633Z,71.30
2023-03-18T23:16:15.960Z,67.97
2023-03-18T23:18:43.709Z,66.70
2023-03-18T23:21:15.251Z,68.40
2023-03-18T23:23:42.965Z,73.87
2023-03-18T23:26:12.385Z,68.33
2023-03-18T23:28:44.695Z,69.13
2023-03-18T23:31:13.422Z,71.63
2023-03-18T23:33:41.048Z,69.77
2023-03-18T23:36:09.597Z,74.17
2023-03-18T23:38:38.071Z,81.80
2023-03-18T23:41:06.122Z,72.00
2023-03-18T23:43:35.137Z,73.10
2023-03-18T23:46:03.674Z,77.60
2023-03-18T23:48:31.844Z,83.93
2023-03-18T23:50:59.643Z,83.90
2023-03-18T23:53:27.334Z,81.40
2023-03-18T23:55:55.047Z,79.10
2023-03-18T23:58:22.641Z,78.40
